sensor_id;sensor_type;location;lat;lon;timestamp;temperature;humidity
36352;DHT22;22382;44.768;17.206;2023-01-28T00:01:56;2.30;99.90
36352;DHT22;22382;44.768;17.206;2023-01-28T00:04:23;2.40;99.90
36352;DHT22;22382;44.768;17.206;2023-01-28T00:06:50;2.40;99.90
36352;DHT22;22382;44.768;17.206;2023-01-28T00:09:19;2.40;99.90
36352;DHT22;22382;44.768;17.206;2023-01-28T00:11:46;2.40;99.90
36352;DHT22;22382;44.768;17.206;2023-01-28T00:14:13;2.50;99.90
36352;DHT22;22382;44.768;17.206;2023-01-28T00:16:40;2.50;99.90
36352;DHT22;22382;44.768;17.206;2023-01-28T00:19:08;2.50;99.90
36352;DHT22;22382;44.768;17.206;2023-01-28T00:21:35;2.60;99.90
36352;DHT22;22382;44.768;17.206;2023-01-28T00:24:02;2.60;99.90
36352;DHT22;22382;44.768;17.206;2023-01-28T00:26:29;2.50;99.90
36352;DHT22;22382;44.768;17.206;2023-01-28T00:28:56;2.50;99.90
36352;DHT22;22382;44.768;17.206;2023-01-28T00:31:24;2.50;99.90
36352;DHT22;22382;44.768;17.206;2023-01-28T00:33:54;2.50;99.90
36352;DHT22;22382;44.768;17.206;2023-01-28T00:36:23;2.50;99.90
36352;DHT22;22382;44.768;17.206;2023-01-28T00:38:52;2.50;99.90
36352;DHT22;22382;44.768;17.206;2023-01-28T00:41:21;2.40;99.90
36352;DHT22;22382;44.768;17.206;2023-01-28T00:43:49;2.40;99.90
36352;DHT22;22382;44.768;17.206;2023-01-28T00:46:17;2.30;99.90
36352;DHT22;22382;44.768;17.206;2023-01-28T00:48:44;2.30;99.90
36352;DHT22;22382;44.768;17.206;2023-01-28T00:51:13;2.40;99.90
36352;DHT22;22382;44.768;17.206;2023-01-28T00:53:43;2.40;99.90
36352;DHT22;22382;44.768;17.206;2023-01-28T00:56:13;2.30;99.90
36352;DHT22;22382;44.768;17.206;2023-01-28T00:58:41;2.30;99.90
36352;DHT22;22382;44.768;17.206;2023-01-28T01:03:41;2.30;99.90
36352;DHT22;22382;44.768;17.206;2023-01-28T01:06:10;2.20;99.90
36352;DHT22;22382;44.768;17.206;2023-01-28T01:08:38;2.30;99.90
36352;DHT22;22382;44.768;17.206;2023-01-28T01:11:10;2.30;99.90
36352;DHT22;22382;44.768;17.206;2023-01-28T01:13:38;2.20;99.90
36352;DHT22;22382;44.768;17.206;2023-01-28T01:16:11;2.20;99.90
36352;DHT22;22382;44.768;17.206;2023-01-28T01:18:39;2.20;99.90
36352;DHT22;22382;44.768;17.206;2023-01-28T01:21:15;2.30;99.90
36352;DHT22;22382;44.768;17.206;2023-01-28T01:23:43;2.30;99.90
36352;DHT22;22382;44.768;17.206;2023-01-28T01:26:12;2.20;99.90
36352;DHT22;22382;44.768;17.206;2023-01-28T01:28:39;2.10;99.90
36352;DHT22;22382;44.768;17.206;2023-01-28T01:31:14;2.10;99.90
36352;DHT22;22382;44.768;17.206;2023-01-28T01:33:42;2.10;99.90
36352;DHT22;22382;44.768;17.206;2023-01-28T01:36:12;2.10;99.90
36352;DHT22;22382;44.768;17.206;2023-01-28T01:38:40;2.10;99.90
36352;DHT22;22382;44.768;17.206;2023-01-28T01:41:08;2.10;99.90
36352;DHT22;22382;44.768;17.206;2023-01-28T01:43:56;2.00;99.90
36352;DHT22;22382;44.768;17.206;2023-01-28T01:49:25;2.10;99.90
36352;DHT22;22382;44.768;17.206;2023-01-28T01:52:08;2.20;99.90
36352;DHT22;22382;44.768;17.206;2023-01-28T01:54:37;2.20;99.90
36352;DHT22;22382;44.768;17.206;2023-01-28T01:57:07;2.20;99.90
36352;DHT22;22382;44.768;17.206;2023-01-28T01:59:36;2.20;99.90
36352;DHT22;22382;44.768;17.206;2023-01-28T02:02:04;2.20;99.90
36352;DHT22;22382;44.768;17.206;2023-01-28T02:04:40;2.20;99.90
36352;DHT22;22382;44.768;17.206;2023-01-28T02:07:09;2.30;99.90
36352;DHT22;22382;44.768;17.206;2023-01-28T02:09:37;2.30;99.90
36352;DHT22;22382;44.768;17.206;2023-01-28T02:12:18;2.30;99.90
36352;DHT22;22382;44.768;17.206;2023-01-28T02:14:53;2.30;99.90
36352;DHT22;22382;44.768;17.206;2023-01-28T02:17:22;2.30;99.90
36352;DHT22;22382;44.768;17.206;2023-01-28T02:28:20;2.30;99.90
36352;DHT22;22382;44.768;17.206;2023-01-28T02:30:58;2.30;99.90
36352;DHT22;22382;44.768;17.206;2023-01-28T02:39:48;2.30;99.90
36352;DHT22;22382;44.768;17.206;2023-01-28T02:42:26;2.30;99.90
36352;DHT22;22382;44.768;17.206;2023-01-28T02:44:55;2.30;99.90
36352;DHT22;22382;44.768;17.206;2023-01-28T02:47:22;2.20;99.90
36352;DHT22;22382;44.768;17.206;2023-01-28T02:50:11;2.20;99.90
36352;DHT22;22382;44.768;17.206;2023-01-28T02:58:26;2.20;99.90
36352;DHT22;22382;44.768;17.206;2023-01-28T03:03:53;2.20;99.90
36352;DHT22;22382;44.768;17.206;2023-01-28T03:06:34;2.20;99.90
36352;DHT22;22382;44.768;17.206;2023-01-28T03:09:06;2.20;99.90
36352;DHT22;22382;44.768;17.206;2023-01-28T03:11:52;2.20;99.90
36352;DHT22;22382;44.768;17.206;2023-01-28T03:14:40;2.20;99.90
36352;DHT22;22382;44.768;17.206;2023-01-28T03:21:01;2.20;99.90
36352;DHT22;22382;44.768;17.206;2023-01-28T03:24:08;2.20;99.90
36352;DHT22;22382;44.768;17.206;2023-01-28T03:27:21;2.20;99.90
36352;DHT22;22382;44.768;17.206;2023-01-28T03:30:14;2.20;99.90
36352;DHT22;22382;44.768;17.206;2023-01-28T03:33:02;2.20;99.90
36352;DHT22;22382;44.768;17.206;2023-01-28T03:35:48;2.20;99.90
36352;DHT22;22382;44.768;17.206;2023-01-28T03:38:34;2.20;99.90
36352;DHT22;22382;44.768;17.206;2023-01-28T03:41:09;2.30;99.90
36352;DHT22;22382;44.768;17.206;2023-01-28T03:43:37;2.30;99.90
36352;DHT22;22382;44.768;17.206;2023-01-28T03:46:04;2.30;99.90
36352;DHT22;22382;44.768;17.206;2023-01-28T03:48:32;2.30;99.90
36352;DHT22;22382;44.768;17.206;2023-01-28T03:50:59;2.30;99.90
36352;DHT22;22382;44.768;17.206;2023-01-28T03:53:26;2.40;99.90
36352;DHT22;22382;44.768;17.206;2023-01-28T03:55:54;2.40;99.90
36352;DHT22;22382;44.768;17.206;2023-01-28T03:58:25;2.40;99.90
36352;DHT22;22382;44.768;17.206;2023-01-28T04:01:12;2.40;99.90
36352;DHT22;22382;44.768;17.206;2023-01-28T04:03:39;2.40;99.90
36352;DHT22;22382;44.768;17.206;2023-01-28T04:06:08;2.30;99.90
36352;DHT22;22382;44.768;17.206;2023-01-28T04:08:35;2.30;99.90
36352;DHT22;22382;44.768;17.206;2023-01-28T04:11:02;2.30;99.90
36352;DHT22;22382;44.768;17.206;2023-01-28T04:13:42;2.20;99.90
36352;DHT22;22382;44.768;17.206;2023-01-28T04:16:10;2.10;99.90
36352;DHT22;22382;44.768;17.206;2023-01-28T04:18:37;2.10;99.90
36352;DHT22;22382;44.768;17.206;2023-01-28T04:21:04;2.10;99.90
36352;DHT22;22382;44.768;17.206;2023-01-28T04:23:32;2.20;99.90
36352;DHT22;22382;44.768;17.206;2023-01-28T04:25:59;2.20;99.90
36352;DHT22;22382;44.768;17.206;2023-01-28T04:28:26;2.10;99.90
36352;DHT22;22382;44.768;17.206;2023-01-28T04:30:53;2.10;99.90
36352;DHT22;22382;44.768;17.206;2023-01-28T04:33:20;2.00;99.90
36352;DHT22;22382;44.768;17.206;2023-01-28T04:35:48;2.10;99.90
36352;DHT22;22382;44.768;17.206;2023-01-28T04:38:15;2.00;99.90
36352;DHT22;22382;44.768;17.206;2023-01-28T04:40:42;2.00;99.90
36352;DHT22;22382;44.768;17.206;2023-01-28T04:43:09;2.10;99.90
36352;DHT22;22382;44.768;17.206;2023-01-28T04:45:36;2.10;99.90
36352;DHT22;22382;44.768;17.206;2023-01-28T04:48:03;2.10;99.90
36352;DHT22;22382;44.768;17.206;2023-01-28T04:50:31;2.10;99.90
36352;DHT22;22382;44.768;17.206;2023-01-28T04:52:58;2.10;99.90
36352;DHT22;22382;44.768;17.206;2023-01-28T04:55:25;2.00;99.90
36352;DHT22;22382;44.768;17.206;2023-01-28T04:57:52;2.00;99.90
36352;DHT22;22382;44.768;17.206;2023-01-28T05:00:20;2.00;99.90
36352;DHT22;22382;44.768;17.206;2023-01-28T05:02:47;2.00;99.90
36352;DHT22;22382;44.768;17.206;2023-01-28T05:05:14;2.10;99.90
36352;DHT22;22382;44.768;17.206;2023-01-28T05:07:42;2.10;99.90
36352;DHT22;22382;44.768;17.206;2023-01-28T05:10:09;2.20;99.90
36352;DHT22;22382;44.768;17.206;2023-01-28T05:12:36;2.20;99.90
36352;DHT22;22382;44.768;17.206;2023-01-28T05:15:04;2.20;99.90
36352;DHT22;22382;44.768;17.206;2023-01-28T05:17:31;2.10;99.90
36352;DHT22;22382;44.768;17.206;2023-01-28T05:19:58;2.00;99.90
36352;DHT22;22382;44.768;17.206;2023-01-28T05:22:26;2.00;99.90
36352;DHT22;22382;44.768;17.206;2023-01-28T05:24:53;2.00;99.90
36352;DHT22;22382;44.768;17.206;2023-01-28T05:27:20;2.00;99.90
36352;DHT22;22382;44.768;17.206;2023-01-28T05:29:47;2.00;99.90
36352;DHT22;22382;44.768;17.206;2023-01-28T05:32:14;2.00;99.90
36352;DHT22;22382;44.768;17.206;2023-01-28T05:34:41;2.00;99.90
36352;DHT22;22382;44.768;17.206;2023-01-28T05:37:08;2.00;99.90
36352;DHT22;22382;44.768;17.206;2023-01-28T05:39:35;2.00;99.90
36352;DHT22;22382;44.768;17.206;2023-01-28T05:42:02;2.00;99.90
36352;DHT22;22382;44.768;17.206;2023-01-28T05:44:30;2.00;99.90
36352;DHT22;22382;44.768;17.206;2023-01-28T05:46:57;1.90;99.90
36352;DHT22;22382;44.768;17.206;2023-01-28T05:49:24;2.00;99.90
36352;DHT22;22382;44.768;17.206;2023-01-28T05:51:52;2.00;99.90
36352;DHT22;22382;44.768;17.206;2023-01-28T05:54:19;1.90;99.90
36352;DHT22;22382;44.768;17.206;2023-01-28T05:56:46;1.90;99.90
36352;DHT22;22382;44.768;17.206;2023-01-28T05:59:14;1.90;99.90
36352;DHT22;22382;44.768;17.206;2023-01-28T06:01:41;1.90;99.90
36352;DHT22;22382;44.768;17.206;2023-01-28T06:04:08;1.90;99.90
36352;DHT22;22382;44.768;17.206;2023-01-28T06:06:35;1.90;99.90
36352;DHT22;22382;44.768;17.206;2023-01-28T06:09:02;1.90;99.90
36352;DHT22;22382;44.768;17.206;2023-01-28T06:11:29;1.90;99.90
36352;DHT22;22382;44.768;17.206;2023-01-28T06:13:56;2.00;99.90
36352;DHT22;22382;44.768;17.206;2023-01-28T06:16:23;2.00;99.90
36352;DHT22;22382;44.768;17.206;2023-01-28T06:18:50;2.00;99.90
36352;DHT22;22382;44.768;17.206;2023-01-28T06:21:17;2.10;99.90
36352;DHT22;22382;44.768;17.206;2023-01-28T06:23:44;2.10;99.90
36352;DHT22;22382;44.768;17.206;2023-01-28T06:26:11;2.10;99.90
36352;DHT22;22382;44.768;17.206;2023-01-28T06:28:38;2.10;99.90
36352;DHT22;22382;44.768;17.206;2023-01-28T06:31:06;2.10;99.90
36352;DHT22;22382;44.768;17.206;2023-01-28T06:33:33;2.10;99.90
36352;DHT22;22382;44.768;17.206;2023-01-28T06:36:03;2.10;99.90
36352;DHT22;22382;44.768;17.206;2023-01-28T06:38:32;2.10;99.90
36352;DHT22;22382;44.768;17.206;2023-01-28T06:41:00;2.10;99.90
36352;DHT22;22382;44.768;17.206;2023-01-28T06:43:27;2.10;99.90
36352;DHT22;22382;44.768;17.206;2023-01-28T06:45:57;2.10;99.90
36352;DHT22;22382;44.768;17.206;2023-01-28T06:48:25;2.10;99.90
36352;DHT22;22382;44.768;17.206;2023-01-28T06:50:52;2.10;99.90
36352;DHT22;22382;44.768;17.206;2023-01-28T06:53:20;2.10;99.90
36352;DHT22;22382;44.768;17.206;2023-01-28T06:55:47;2.10;99.90
36352;DHT22;22382;44.768;17.206;2023-01-28T06:58:15;2.20;99.90
36352;DHT22;22382;44.768;17.206;2023-01-28T07:00:42;2.20;99.90
36352;DHT22;22382;44.768;17.206;2023-01-28T07:03:09;2.10;99.90
36352;DHT22;22382;44.768;17.206;2023-01-28T07:05:36;2.00;99.90
36352;DHT22;22382;44.768;17.206;2023-01-28T07:08:04;2.00;99.90
36352;DHT22;22382;44.768;17.206;2023-01-28T07:10:32;2.00;99.90
36352;DHT22;22382;44.768;17.206;2023-01-28T07:12:59;2.10;99.90
36352;DHT22;22382;44.768;17.206;2023-01-28T07:15:27;2.10;99.90
36352;DHT22;22382;44.768;17.206;2023-01-28T07:17:54;2.10;99.90
36352;DHT22;22382;44.768;17.206;2023-01-28T07:20:21;2.20;99.90
36352;DHT22;22382;44.768;17.206;2023-01-28T07:22:48;2.10;99.90
36352;DHT22;22382;44.768;17.206;2023-01-28T07:25:16;2.20;99.90
36352;DHT22;22382;44.768;17.206;2023-01-28T07:27:50;2.20;99.90
36352;DHT22;22382;44.768;17.206;2023-01-28T07:30:19;2.20;99.90
36352;DHT22;22382;44.768;17.206;2023-01-28T07:32:51;2.30;99.90
36352;DHT22;22382;44.768;17.206;2023-01-28T07:35:18;2.20;99.90
36352;DHT22;22382;44.768;17.206;2023-01-28T07:37:52;2.20;99.90
36352;DHT22;22382;44.768;17.206;2023-01-28T07:40:20;2.20;99.90
36352;DHT22;22382;44.768;17.206;2023-01-28T07:42:49;2.30;99.90
36352;DHT22;22382;44.768;17.206;2023-01-28T07:45:16;2.30;99.90
36352;DHT22;22382;44.768;17.206;2023-01-28T07:47:43;2.30;99.90
36352;DHT22;22382;44.768;17.206;2023-01-28T07:50:11;2.40;99.90
36352;DHT22;22382;44.768;17.206;2023-01-28T07:52:39;2.60;99.90
36352;DHT22;22382;44.768;17.206;2023-01-28T07:55:11;2.70;99.90
36352;DHT22;22382;44.768;17.206;2023-01-28T08:00:15;2.70;99.90
36352;DHT22;22382;44.768;17.206;2023-01-28T08:02:43;2.80;99.90
36352;DHT22;22382;44.768;17.206;2023-01-28T08:05:18;2.90;99.90
36352;DHT22;22382;44.768;17.206;2023-01-28T08:07:46;2.90;99.90
36352;DHT22;22382;44.768;17.206;2023-01-28T08:10:17;2.90;99.90
36352;DHT22;22382;44.768;17.206;2023-01-28T08:12:55;2.90;99.90
36352;DHT22;22382;44.768;17.206;2023-01-28T08:15:22;2.90;99.90
36352;DHT22;22382;44.768;17.206;2023-01-28T08:17:49;3.00;99.90
36352;DHT22;22382;44.768;17.206;2023-01-28T08:20:17;3.10;99.90
36352;DHT22;22382;44.768;17.206;2023-01-28T08:22:44;2.90;99.90
36352;DHT22;22382;44.768;17.206;2023-01-28T08:25:11;2.90;99.90
36352;DHT22;22382;44.768;17.206;2023-01-28T08:27:38;3.00;99.90
36352;DHT22;22382;44.768;17.206;2023-01-28T08:30:06;3.00;99.90
36352;DHT22;22382;44.768;17.206;2023-01-28T08:32:35;3.10;99.90
36352;DHT22;22382;44.768;17.206;2023-01-28T08:35:04;3.10;99.90
36352;DHT22;22382;44.768;17.206;2023-01-28T08:37:31;3.10;99.90
36352;DHT22;22382;44.768;17.206;2023-01-28T08:39:58;3.20;99.90
36352;DHT22;22382;44.768;17.206;2023-01-28T08:42:25;3.20;99.90
36352;DHT22;22382;44.768;17.206;2023-01-28T08:44:52;3.20;99.90
36352;DHT22;22382;44.768;17.206;2023-01-28T08:47:20;3.20;99.90
36352;DHT22;22382;44.768;17.206;2023-01-28T08:49:47;3.30;99.90
36352;DHT22;22382;44.768;17.206;2023-01-28T08:52:14;3.30;99.90
36352;DHT22;22382;44.768;17.206;2023-01-28T08:54:41;3.20;99.90
36352;DHT22;22382;44.768;17.206;2023-01-28T08:57:08;3.30;99.90
36352;DHT22;22382;44.768;17.206;2023-01-28T08:59:35;3.40;99.90
36352;DHT22;22382;44.768;17.206;2023-01-28T09:02:07;3.40;99.90
36352;DHT22;22382;44.768;17.206;2023-01-28T09:04:51;3.30;99.90
36352;DHT22;22382;44.768;17.206;2023-01-28T09:07:18;3.40;99.90
36352;DHT22;22382;44.768;17.206;2023-01-28T09:09:46;3.60;99.90
36352;DHT22;22382;44.768;17.206;2023-01-28T09:12:13;3.60;99.90
36352;DHT22;22382;44.768;17.206;2023-01-28T09:14:40;3.60;99.90
36352;DHT22;22382;44.768;17.206;2023-01-28T09:17:07;3.50;99.90
36352;DHT22;22382;44.768;17.206;2023-01-28T09:19:34;3.40;99.90
36352;DHT22;22382;44.768;17.206;2023-01-28T09:22:04;3.50;99.90
36352;DHT22;22382;44.768;17.206;2023-01-28T09:24:32;3.50;99.90
36352;DHT22;22382;44.768;17.206;2023-01-28T09:26:59;3.50;99.90
36352;DHT22;22382;44.768;17.206;2023-01-28T09:29:26;3.40;99.90
36352;DHT22;22382;44.768;17.206;2023-01-28T09:31:54;3.30;99.90
36352;DHT22;22382;44.768;17.206;2023-01-28T09:34:21;3.40;99.90
36352;DHT22;22382;44.768;17.206;2023-01-28T09:36:48;3.40;99.90
36352;DHT22;22382;44.768;17.206;2023-01-28T09:39:15;3.30;99.90
36352;DHT22;22382;44.768;17.206;2023-01-28T09:46:48;3.40;99.90
36352;DHT22;22382;44.768;17.206;2023-01-28T09:51:51;3.30;99.90
36352;DHT22;22382;44.768;17.206;2023-01-28T09:54:23;3.30;99.90
36352;DHT22;22382;44.768;17.206;2023-01-28T09:56:59;3.40;99.90
36352;DHT22;22382;44.768;17.206;2023-01-28T09:59:33;3.50;99.90
36352;DHT22;22382;44.768;17.206;2023-01-28T10:05:05;3.80;99.90
36352;DHT22;22382;44.768;17.206;2023-01-28T10:07:40;3.90;99.90
36352;DHT22;22382;44.768;17.206;2023-01-28T10:10:18;4.00;99.90
36352;DHT22;22382;44.768;17.206;2023-01-28T10:18:11;3.90;99.90
36352;DHT22;22382;44.768;17.206;2023-01-28T10:20:48;4.00;99.90
36352;DHT22;22382;44.768;17.206;2023-01-28T10:26:33;4.00;99.90
36352;DHT22;22382;44.768;17.206;2023-01-28T10:29:16;4.10;99.90
36352;DHT22;22382;44.768;17.206;2023-01-28T10:31:54;4.10;99.90
36352;DHT22;22382;44.768;17.206;2023-01-28T10:34:25;4.30;99.90
36352;DHT22;22382;44.768;17.206;2023-01-28T10:36:52;4.40;99.90
36352;DHT22;22382;44.768;17.206;2023-01-28T10:39:21;4.40;99.90
36352;DHT22;22382;44.768;17.206;2023-01-28T10:41:51;4.40;99.90
36352;DHT22;22382;44.768;17.206;2023-01-28T10:44:38;4.50;99.90
36352;DHT22;22382;44.768;17.206;2023-01-28T10:47:19;4.40;99.90
36352;DHT22;22382;44.768;17.206;2023-01-28T10:49:53;4.50;99.90
36352;DHT22;22382;44.768;17.206;2023-01-28T10:52:21;4.50;99.90
36352;DHT22;22382;44.768;17.206;2023-01-28T10:55:01;4.20;99.90
36352;DHT22;22382;44.768;17.206;2023-01-28T10:57:29;4.10;99.90
36352;DHT22;22382;44.768;17.206;2023-01-28T11:00:21;4.10;99.90
36352;DHT22;22382;44.768;17.206;2023-01-28T11:02:49;4.10;99.90
36352;DHT22;22382;44.768;17.206;2023-01-28T11:05:17;4.10;99.90
36352;DHT22;22382;44.768;17.206;2023-01-28T11:07:47;4.10;99.90
36352;DHT22;22382;44.768;17.206;2023-01-28T11:10:36;4.10;99.90
36352;DHT22;22382;44.768;17.206;2023-01-28T11:13:05;4.10;99.90
36352;DHT22;22382;44.768;17.206;2023-01-28T11:15:32;4.10;99.90
36352;DHT22;22382;44.768;17.206;2023-01-28T11:18:02;4.00;99.90
36352;DHT22;22382;44.768;17.206;2023-01-28T11:20:39;4.00;99.90
36352;DHT22;22382;44.768;17.206;2023-01-28T11:23:17;3.90;99.90
36352;DHT22;22382;44.768;17.206;2023-01-28T11:25:45;3.90;99.90
36352;DHT22;22382;44.768;17.206;2023-01-28T11:28:18;3.90;99.90
36352;DHT22;22382;44.768;17.206;2023-01-28T11:30:51;3.90;99.90
36352;DHT22;22382;44.768;17.206;2023-01-28T11:33:31;3.90;99.90
36352;DHT22;22382;44.768;17.206;2023-01-28T11:36:06;3.80;99.90
36352;DHT22;22382;44.768;17.206;2023-01-28T11:38:34;3.80;99.90
36352;DHT22;22382;44.768;17.206;2023-01-28T11:41:01;3.80;99.90
36352;DHT22;22382;44.768;17.206;2023-01-28T11:43:30;3.90;99.90
36352;DHT22;22382;44.768;17.206;2023-01-28T11:59:50;3.40;99.90
36352;DHT22;22382;44.768;17.206;2023-01-28T12:13:28;3.50;99.90
36352;DHT22;22382;44.768;17.206;2023-01-28T12:25:02;3.40;99.90
36352;DHT22;22382;44.768;17.206;2023-01-28T12:41:42;3.60;99.90
36352;DHT22;22382;44.768;17.206;2023-01-28T12:44:26;3.50;99.90
36352;DHT22;22382;44.768;17.206;2023-01-28T12:46:57;3.30;99.90
36352;DHT22;22382;44.768;17.206;2023-01-28T12:57:29;3.20;99.90
36352;DHT22;22382;44.768;17.206;2023-01-28T13:00:05;3.20;99.90
36352;DHT22;22382;44.768;17.206;2023-01-28T13:02:41;3.20;99.90
36352;DHT22;22382;44.768;17.206;2023-01-28T13:05:16;3.30;99.90
36352;DHT22;22382;44.768;17.206;2023-01-28T13:12:54;3.30;99.90
36352;DHT22;22382;44.768;17.206;2023-01-28T13:15:23;3.30;99.90
36352;DHT22;22382;44.768;17.206;2023-01-28T13:18:02;3.20;99.90
36352;DHT22;22382;44.768;17.206;2023-01-28T13:20:50;3.10;99.90
36352;DHT22;22382;44.768;17.206;2023-01-28T13:23:35;3.00;99.90
36352;DHT22;22382;44.768;17.206;2023-01-28T13:28:47;2.70;99.90
36352;DHT22;22382;44.768;17.206;2023-01-28T13:31:19;2.80;99.90
36352;DHT22;22382;44.768;17.206;2023-01-28T13:36:25;3.00;99.90
36352;DHT22;22382;44.768;17.206;2023-01-28T13:39:04;3.10;99.90
36352;DHT22;22382;44.768;17.206;2023-01-28T13:41:44;3.10;99.90
36352;DHT22;22382;44.768;17.206;2023-01-28T13:44:31;3.10;99.90
36352;DHT22;22382;44.768;17.206;2023-01-28T13:47:30;2.90;99.90
36352;DHT22;22382;44.768;17.206;2023-01-28T13:50:05;2.90;99.90
36352;DHT22;22382;44.768;17.206;2023-01-28T13:52:43;2.80;99.90
36352;DHT22;22382;44.768;17.206;2023-01-28T14:23:03;2.80;99.90
36352;DHT22;22382;44.768;17.206;2023-01-28T14:25:39;2.80;99.90
36352;DHT22;22382;44.768;17.206;2023-01-28T14:28:15;2.80;99.90
36352;DHT22;22382;44.768;17.206;2023-01-28T14:31:00;2.80;99.90
36352;DHT22;22382;44.768;17.206;2023-01-28T14:33:32;2.80;99.90
36352;DHT22;22382;44.768;17.206;2023-01-28T14:35:59;2.90;99.90
36352;DHT22;22382;44.768;17.206;2023-01-28T14:38:27;2.90;99.90
36352;DHT22;22382;44.768;17.206;2023-01-28T14:40:54;3.00;99.90
36352;DHT22;22382;44.768;17.206;2023-01-28T14:43:24;3.00;99.90
36352;DHT22;22382;44.768;17.206;2023-01-28T14:58:55;3.20;99.90
36352;DHT22;22382;44.768;17.206;2023-01-28T15:01:29;3.10;99.90
36352;DHT22;22382;44.768;17.206;2023-01-28T15:03:56;3.00;99.90
36352;DHT22;22382;44.768;17.206;2023-01-28T15:06:29;3.10;99.90
36352;DHT22;22382;44.768;17.206;2023-01-28T15:09:06;3.10;99.90
36352;DHT22;22382;44.768;17.206;2023-01-28T15:11:37;3.20;99.90
36352;DHT22;22382;44.768;17.206;2023-01-28T15:14:22;3.20;99.90
36352;DHT22;22382;44.768;17.206;2023-01-28T15:16:51;3.20;99.90
36352;DHT22;22382;44.768;17.206;2023-01-28T15:19:26;3.20;99.90
36352;DHT22;22382;44.768;17.206;2023-01-28T15:21:57;3.20;99.90
36352;DHT22;22382;44.768;17.206;2023-01-28T15:24:25;3.20;99.90
36352;DHT22;22382;44.768;17.206;2023-01-28T15:26:52;3.20;99.90
36352;DHT22;22382;44.768;17.206;2023-01-28T15:31:58;3.10;99.90
36352;DHT22;22382;44.768;17.206;2023-01-28T15:34:25;3.00;99.90
36352;DHT22;22382;44.768;17.206;2023-01-28T15:36:57;3.00;99.90
36352;DHT22;22382;44.768;17.206;2023-01-28T15:39:26;2.90;99.90
36352;DHT22;22382;44.768;17.206;2023-01-28T15:42:03;2.90;99.90
36352;DHT22;22382;44.768;17.206;2023-01-28T15:44:35;2.90;99.90
36352;DHT22;22382;44.768;17.206;2023-01-28T15:47:25;2.90;99.90
36352;DHT22;22382;44.768;17.206;2023-01-28T15:49:54;3.00;99.90
36352;DHT22;22382;44.768;17.206;2023-01-28T15:52:33;3.00;99.90
36352;DHT22;22382;44.768;17.206;2023-01-28T15:55:02;3.10;99.90
36352;DHT22;22382;44.768;17.206;2023-01-28T15:57:31;2.90;99.90
36352;DHT22;22382;44.768;17.206;2023-01-28T16:00:18;2.80;99.90
36352;DHT22;22382;44.768;17.206;2023-01-28T16:02:47;2.80;99.90
36352;DHT22;22382;44.768;17.206;2023-01-28T16:07:58;2.80;99.90
36352;DHT22;22382;44.768;17.206;2023-01-28T16:10:29;2.80;99.90
36352;DHT22;22382;44.768;17.206;2023-01-28T16:13:16;2.70;99.90
36352;DHT22;22382;44.768;17.206;2023-01-28T16:15:47;2.70;99.90
36352;DHT22;22382;44.768;17.206;2023-01-28T16:18:38;2.70;99.90
36352;DHT22;22382;44.768;17.206;2023-01-28T16:21:09;2.70;99.90
36352;DHT22;22382;44.768;17.206;2023-01-28T16:23:38;2.70;99.90
36352;DHT22;22382;44.768;17.206;2023-01-28T16:26:22;2.70;99.90
36352;DHT22;22382;44.768;17.206;2023-01-28T16:28:50;2.70;99.90
36352;DHT22;22382;44.768;17.206;2023-01-28T16:31:18;2.70;99.90
36352;DHT22;22382;44.768;17.206;2023-01-28T16:33:46;2.70;99.90
36352;DHT22;22382;44.768;17.206;2023-01-28T16:36:15;2.70;99.90
36352;DHT22;22382;44.768;17.206;2023-01-28T16:38:42;2.70;99.90
36352;DHT22;22382;44.768;17.206;2023-01-28T16:41:31;2.70;99.90
36352;DHT22;22382;44.768;17.206;2023-01-28T16:43:59;2.70;99.90
36352;DHT22;22382;44.768;17.206;2023-01-28T16:46:32;2.70;99.90
36352;DHT22;22382;44.768;17.206;2023-01-28T16:49:00;2.60;99.90
36352;DHT22;22382;44.768;17.206;2023-01-28T16:51:27;2.60;99.90
36352;DHT22;22382;44.768;17.206;2023-01-28T16:53:56;2.60;99.90
36352;DHT22;22382;44.768;17.206;2023-01-28T16:56:26;2.60;99.90
36352;DHT22;22382;44.768;17.206;2023-01-28T16:59:13;2.60;99.90
36352;DHT22;22382;44.768;17.206;2023-01-28T17:01:45;2.60;99.90
36352;DHT22;22382;44.768;17.206;2023-01-28T17:04:13;2.60;99.90
36352;DHT22;22382;44.768;17.206;2023-01-28T17:06:41;2.60;99.90
36352;DHT22;22382;44.768;17.206;2023-01-28T17:09:11;2.60;99.90
36352;DHT22;22382;44.768;17.206;2023-01-28T17:11:39;2.60;99.90
36352;DHT22;22382;44.768;17.206;2023-01-28T17:14:07;2.70;99.90
36352;DHT22;22382;44.768;17.206;2023-01-28T17:16:34;2.60;99.90
36352;DHT22;22382;44.768;17.206;2023-01-28T17:19:02;2.60;99.90
36352;DHT22;22382;44.768;17.206;2023-01-28T17:21:29;2.60;99.90
36352;DHT22;22382;44.768;17.206;2023-01-28T17:23:56;2.60;99.90
36352;DHT22;22382;44.768;17.206;2023-01-28T17:26:25;2.60;99.90
36352;DHT22;22382;44.768;17.206;2023-01-28T17:28:52;2.60;99.90
36352;DHT22;22382;44.768;17.206;2023-01-28T17:31:21;2.60;99.90
36352;DHT22;22382;44.768;17.206;2023-01-28T17:33:52;2.60;99.90
36352;DHT22;22382;44.768;17.206;2023-01-28T17:36:21;2.70;99.90
36352;DHT22;22382;44.768;17.206;2023-01-28T17:38:48;2.70;99.90
36352;DHT22;22382;44.768;17.206;2023-01-28T17:41:15;2.60;99.90
36352;DHT22;22382;44.768;17.206;2023-01-28T17:43:53;2.60;99.90
36352;DHT22;22382;44.768;17.206;2023-01-28T17:46:22;2.60;99.90
36352;DHT22;22382;44.768;17.206;2023-01-28T17:48:49;2.60;99.90
36352;DHT22;22382;44.768;17.206;2023-01-28T17:51:17;2.60;99.90
36352;DHT22;22382;44.768;17.206;2023-01-28T17:53:48;2.60;99.90
36352;DHT22;22382;44.768;17.206;2023-01-28T17:58:48;2.60;99.90
36352;DHT22;22382;44.768;17.206;2023-01-28T18:01:16;2.60;99.90
36352;DHT22;22382;44.768;17.206;2023-01-28T18:03:43;2.60;99.90
36352;DHT22;22382;44.768;17.206;2023-01-28T18:06:11;2.60;99.90
36352;DHT22;22382;44.768;17.206;2023-01-28T18:08:38;2.60;99.90
36352;DHT22;22382;44.768;17.206;2023-01-28T18:11:07;2.60;99.90
36352;DHT22;22382;44.768;17.206;2023-01-28T18:13:35;2.60;99.90
36352;DHT22;22382;44.768;17.206;2023-01-28T18:16:05;2.60;99.90
36352;DHT22;22382;44.768;17.206;2023-01-28T18:18:33;2.60;99.90
36352;DHT22;22382;44.768;17.206;2023-01-28T18:21:05;2.60;99.90
36352;DHT22;22382;44.768;17.206;2023-01-28T18:23:33;2.60;99.90
36352;DHT22;22382;44.768;17.206;2023-01-28T18:26:02;2.70;99.90
36352;DHT22;22382;44.768;17.206;2023-01-28T18:28:30;2.80;99.90
36352;DHT22;22382;44.768;17.206;2023-01-28T18:31:06;2.80;99.90
36352;DHT22;22382;44.768;17.206;2023-01-28T18:33:33;2.70;99.90
36352;DHT22;22382;44.768;17.206;2023-01-28T18:36:03;2.70;99.90
36352;DHT22;22382;44.768;17.206;2023-01-28T18:38:30;2.80;99.90
36352;DHT22;22382;44.768;17.206;2023-01-28T18:40:57;2.80;99.90
36352;DHT22;22382;44.768;17.206;2023-01-28T18:43:24;2.90;99.90